createdAt,value
2022-09-16T00:01:58.699Z,100347.44
2022-09-16T00:04:25.210Z,100331.72
2022-09-16T00:06:51.618Z,100336.97
2022-09-16T00:09:18.019Z,100327.38
2022-09-16T00:11:44.446Z,100321.22
2022-09-16T00:14:11.007Z,100323.00
2022-09-16T00:16:37.436Z,100316.00
2022-09-16T00:19:04.127Z,100317.72
2022-09-16T00:21:31.223Z,100325.56
2022-09-16T00:23:57.992Z,100335.38
2022-09-16T00:26:24.430Z,100331.06
2022-09-16T00:28:50.981Z,100339.00
2022-09-16T00:31:18.419Z,100337.34
2022-09-16T00:33:44.913Z,100339.19
2022-09-16T00:36:20.549Z,100342.63
2022-09-16T00:38:51.201Z,100344.44
2022-09-16T00:41:20.073Z,100347.88
2022-09-16T00:43:52.076Z,100345.25
2022-09-16T00:46:34.447Z,100346.22
2022-09-16T00:49:05.776Z,100348.84
2022-09-16T00:51:32.829Z,100356.72
2022-09-16T00:54:03.272Z,100345.38
2022-09-16T00:56:34.285Z,100346.25
2022-09-16T00:59:21.702Z,100351.59
2022-09-16T01:01:49.311Z,100349.88
2022-09-16T01:04:24.612Z,100351.81
2022-09-16T01:06:51.442Z,100361.50
2022-09-16T01:09:20.916Z,100352.78
2022-09-16T01:11:47.366Z,100351.00
2022-09-16T01:14:34.041Z,100350.19
2022-09-16T01:17:24.593Z,100348.53
2022-09-16T01:20:09.875Z,100345.91
2022-09-16T01:22:42.496Z,100344.94
2022-09-16T01:25:27.014Z,100344.19
2022-09-16T01:28:27.300Z,100340.66
2022-09-16T01:31:25.165Z,100347.56
2022-09-16T01:34:00.617Z,100346.78
2022-09-16T01:36:48.749Z,100343.22
2022-09-16T01:39:29.870Z,100350.19
2022-09-16T01:42:02.406Z,100345.84
2022-09-16T01:44:45.897Z,100337.06
2022-09-16T01:47:35.580Z,100340.69
2022-09-16T01:50:26.419Z,100339.81
2022-09-16T01:53:03.796Z,100339.81
2022-09-16T01:55:38.106Z,100336.25
2022-09-16T01:58:27.514Z,100327.47
2022-09-16T02:00:59.193Z,100337.00
2022-09-16T02:03:30.534Z,100333.59
2022-09-16T02:06:02.896Z,100341.53
2022-09-16T02:08:37.856Z,100339.69
2022-09-16T02:11:08.795Z,100334.44
2022-09-16T02:13:42.232Z,100337.91
2022-09-16T02:16:16.343Z,100338.88
2022-09-16T02:18:46.697Z,100330.16
2022-09-16T02:21:16.585Z,100328.44
2022-09-16T02:23:51.328Z,100324.97
2022-09-16T02:26:22.847Z,100326.69
2022-09-16T02:28:52.133Z,100326.69
2022-09-16T02:31:24.558Z,100327.56
2022-09-16T02:33:55.962Z,100321.56
2022-09-16T02:36:24.790Z,100334.63
2022-09-16T02:39:08.561Z,100328.44
2022-09-16T02:41:37.463Z,100325.81
2022-09-16T02:44:04.858Z,100324.94
2022-09-16T02:46:46.713Z,100324.00
2022-09-16T02:49:26.683Z,100322.22
2022-09-16T02:52:15.183Z,100317.03
2022-09-16T02:55:24.974Z,100318.88
2022-09-16T02:57:51.603Z,100318.88
2022-09-16T03:00:18.115Z,100313.56
2022-09-16T03:02:44.895Z,100317.94
2022-09-16T03:05:11.369Z,100319.66
2022-09-16T03:07:40.585Z,100316.16
2022-09-16T03:10:10.245Z,100310.94
2022-09-16T03:13:22.284Z,100305.81
2022-09-16T03:16:24.210Z,100307.56
2022-09-16T03:19:08.388Z,100312.88
2022-09-16T03:21:53.041Z,100312.97
2022-09-16T03:24:51.412Z,100308.69
2022-09-16T03:27:31.828Z,100303.44
2022-09-16T03:30:04.257Z,100312.09
2022-09-16T03:32:32.813Z,100307.94
2022-09-16T03:35:12.088Z,100307.06
2022-09-16T03:37:40.884Z,100305.31
2022-09-16T03:40:14.008Z,100300.97
2022-09-16T03:42:42.983Z,100308.00
2022-09-16T03:45:20.990Z,100310.63
2022-09-16T03:47:50.333Z,100300.13
2022-09-16T03:50:18.089Z,100307.88
2022-09-16T03:52:44.591Z,100305.31
2022-09-16T03:55:11.618Z,100306.25
2022-09-16T03:57:38.614Z,100301.81
2022-09-16T04:00:08.095Z,100303.78
2022-09-16T04:02:35.673Z,100304.66
2022-09-16T04:05:02.343Z,100297.88
2022-09-16T04:07:28.794Z,100294.44
2022-09-16T04:09:55.230Z,100293.59
2022-09-16T04:12:21.661Z,100293.66
2022-09-16T04:14:48.041Z,100282.31
2022-09-16T04:17:14.448Z,100277.22
2022-09-16T04:19:40.849Z,100272.13
2022-09-16T04:22:07.334Z,100272.22
2022-09-16T04:24:33.714Z,100275.69
2022-09-16T04:27:00.104Z,100285.34
2022-09-16T04:29:26.859Z,100284.59
2022-09-16T04:31:54.318Z,100286.25
2022-09-16T04:34:20.790Z,100279.25
2022-09-16T04:36:47.239Z,100280.00
2022-09-16T04:39:13.788Z,100283.34
2022-09-16T04:41:40.216Z,100284.19
2022-09-16T04:44:06.717Z,100299.81
2022-09-16T04:46:33.434Z,100302.72
2022-09-16T04:49:00.473Z,100320.25
2022-09-16T04:51:28.207Z,100315.19
2022-09-16T04:53:56.767Z,100313.34
2022-09-16T04:56:29.528Z,100325.91
2022-09-16T04:58:59.229Z,100307.09
2022-09-16T05:01:28.335Z,100308.91
2022-09-16T05:03:57.531Z,100304.88
2022-09-16T05:06:26.775Z,100303.13
2022-09-16T05:08:54.440Z,100296.81
2022-09-16T05:11:23.495Z,100298.38
2022-09-16T05:13:50.419Z,100293.91
2022-09-16T05:16:19.059Z,100287.63
2022-09-16T05:18:47.855Z,100284.03
2022-09-16T05:21:16.598Z,100281.66
2022-09-16T05:23:46.697Z,100283.19
2022-09-16T05:26:19.388Z,100284.78
2022-09-16T05:28:46.065Z,100287.34
2022-09-16T05:31:18.045Z,100293.47
2022-09-16T05:33:53.015Z,100291.75
2022-09-16T05:36:19.619Z,100295.22
2022-09-16T05:39:04.570Z,100305.91
2022-09-16T05:41:32.777Z,100304.13
2022-09-16T05:44:00.605Z,100294.53
2022-09-16T05:46:28.235Z,100301.38
2022-09-16T05:48:55.224Z,100308.50
2022-09-16T05:51:23.751Z,100305.03
2022-09-16T05:53:51.146Z,100301.44
2022-09-16T05:56:24.506Z,100308.34
2022-09-16T05:58:52.963Z,100294.41
2022-09-16T06:01:25.692Z,100309.38
2022-09-16T06:03:52.390Z,100305.66
2022-09-16T06:06:24.489Z,100310.53
2022-09-16T06:08:52.740Z,100308.25
2022-09-16T06:11:20.006Z,100313.16
2022-09-16T06:13:46.578Z,100309.78
2022-09-16T06:16:14.647Z,100307.09
2022-09-16T06:18:41.203Z,100304.47
2022-09-16T06:21:10.345Z,100300.91
2022-09-16T06:23:38.263Z,100313.06
2022-09-16T06:26:08.644Z,100320.22
2022-09-16T06:28:36.012Z,100311.53
2022-09-16T06:31:23.785Z,100320.31
2022-09-16T06:33:50.631Z,100319.41
2022-09-16T06:36:22.330Z,100309.88
2022-09-16T06:38:49.776Z,100324.47
2022-09-16T06:41:18.204Z,100310.28
2022-09-16T06:43:45.458Z,100315.41
2022-09-16T06:46:16.169Z,100316.28
2022-09-16T06:48:47.660Z,100313.75
2022-09-16T06:51:22.725Z,100315.53
2022-09-16T06:53:50.425Z,100313.66
2022-09-16T06:56:19.529Z,100302.25
2022-09-16T06:58:48.079Z,100312.06
2022-09-16T07:01:28.325Z,100319.84
2022-09-16T07:03:56.475Z,100318.84
2022-09-16T07:06:37.295Z,100312.72
2022-09-16T07:09:11.196Z,100313.41
2022-09-16T07:11:37.599Z,100316.94
2022-09-16T07:14:04.915Z,100321.34
2022-09-16T07:16:31.450Z,100310.72
2022-09-16T07:19:01.156Z,100312.38
2022-09-16T07:21:30.157Z,100314.09
2022-09-16T07:24:01.822Z,100321.91
2022-09-16T07:26:31.163Z,100328.25
2022-09-16T07:29:00.335Z,100325.63
2022-09-16T07:31:29.580Z,100323.22
2022-09-16T07:34:02.845Z,100323.97
2022-09-16T07:36:34.087Z,100334.31
2022-09-16T07:39:00.515Z,100333.72
2022-09-16T07:41:34.282Z,100337.16
2022-09-16T07:44:02.047Z,100338.88
2022-09-16T07:46:32.555Z,100345.09
2022-09-16T07:49:01.078Z,100344.03
2022-09-16T07:51:28.815Z,100338.13
2022-09-16T07:53:59.283Z,100337.09
2022-09-16T07:56:28.957Z,100340.41
2022-09-16T07:58:56.941Z,100347.06
2022-09-16T08:01:24.608Z,100337.34
2022-09-16T08:03:51.637Z,100338.88
2022-09-16T08:06:24.243Z,100329.97
2022-09-16T08:08:57.687Z,100342.13
2022-09-16T08:11:30.328Z,100341.75
2022-09-16T08:14:00.369Z,100339.94
2022-09-16T08:16:27.892Z,100354.59
2022-09-16T08:18:58.035Z,100361.25
2022-09-16T08:21:29.190Z,100357.56
2022-09-16T08:23:56.459Z,100359.19
2022-09-16T08:26:23.358Z,100360.19
2022-09-16T08:29:07.852Z,100360.19
2022-09-16T08:31:35.424Z,100356.53
2022-09-16T08:34:01.889Z,100368.50
2022-09-16T08:36:28.389Z,100359.56
2022-09-16T08:38:56.642Z,100359.41
2022-09-16T08:41:55.179Z,100354.69
2022-09-16T08:44:30.631Z,100351.09
2022-09-16T08:47:01.261Z,100352.59
2022-09-16T08:49:28.154Z,100359.44
2022-09-16T08:51:56.484Z,100353.31
2022-09-16T08:54:40.871Z,100350.97
2022-09-16T08:57:14.928Z,100357.16
2022-09-16T09:00:01.918Z,100358.00
2022-09-16T09:02:31.670Z,100355.22
2022-09-16T09:04:59.301Z,100360.22
2022-09-16T09:07:37.884Z,100360.88
2022-09-16T09:10:39.639Z,100357.19
2022-09-16T09:13:21.397Z,100344.56
2022-09-16T09:16:07.767Z,100359.34
2022-09-16T09:18:49.248Z,100362.84
2022-09-16T09:21:38.265Z,100361.13
2022-09-16T09:24:04.896Z,100355.81
2022-09-16T09:27:06.887Z,100375.78
2022-09-16T09:29:59.687Z,100364.19
2022-09-16T09:32:49.143Z,100356.44
2022-09-16T09:35:32.200Z,100363.34
2022-09-16T09:38:11.528Z,100354.31
2022-09-16T09:40:52.274Z,100357.81
2022-09-16T09:43:29.959Z,100344.56
2022-09-16T09:46:02.706Z,100352.03
2022-09-16T09:48:38.585Z,100345.63
2022-09-16T09:51:23.956Z,100335.84
2022-09-16T09:53:59.885Z,100340.56
2022-09-16T09:56:41.631Z,100363.78
2022-09-16T09:59:44.860Z,100358.56
2022-09-16T10:02:17.359Z,100348.03
2022-09-16T10:04:43.960Z,100340.88
2022-09-16T10:07:13.474Z,100327.91
2022-09-16T10:09:49.672Z,100343.63
2022-09-16T10:12:26.681Z,100353.47
2022-09-16T10:14:53.252Z,100337.81
2022-09-16T10:17:19.785Z,100327.63
2022-09-16T10:20:02.082Z,100338.16
2022-09-16T10:22:30.520Z,100338.34
2022-09-16T10:24:59.661Z,100330.50
2022-09-16T10:27:37.584Z,100341.16
2022-09-16T10:30:19.312Z,100335.84
2022-09-16T10:32:51.774Z,100332.13
2022-09-16T10:35:27.346Z,100349.97
2022-09-16T10:37:58.181Z,100328.75
2022-09-16T10:40:26.519Z,100327.66
2022-09-16T10:42:56.766Z,100329.97
2022-09-16T10:45:31.399Z,100327.38
2022-09-16T10:48:04.906Z,100335.50
2022-09-16T10:50:34.046Z,100353.59
2022-09-16T10:53:00.446Z,100323.66
2022-09-16T10:55:28.675Z,100336.31
2022-09-16T10:58:13.324Z,100335.69
2022-09-16T11:00:57.685Z,100334.53
2022-09-16T11:03:41.368Z,100335.09
2022-09-16T11:06:13.928Z,100330.34
2022-09-16T11:09:10.523Z,100328.56
2022-09-16T11:11:39.912Z,100330.75
2022-09-16T11:14:15.355Z,100331.91
2022-09-16T11:16:54.123Z,100333.63
2022-09-16T11:19:46.878Z,100330.06
2022-09-16T11:22:32.232Z,100325.50
2022-09-16T11:25:24.547Z,100322.81
2022-09-16T11:28:23.448Z,100332.84
2022-09-16T11:31:21.226Z,100324.22
2022-09-16T11:34:14.386Z,100314.34
2022-09-16T11:37:16.360Z,100324.59
2022-09-16T11:39:57.838Z,100326.09
2022-09-16T11:42:34.236Z,100340.13
2022-09-16T11:45:50.761Z,100328.72
2022-09-16T11:48:46.865Z,100337.13
2022-09-16T11:51:40.308Z,100346.66
2022-09-16T11:54:18.952Z,100353.34
2022-09-16T11:56:50.426Z,100359.72
2022-09-16T11:59:43.313Z,100364.13
2022-09-16T12:02:17.297Z,100373.69
2022-09-16T12:04:58.521Z,100369.88
2022-09-16T12:07:39.750Z,100362.06
2022-09-16T12:10:18.294Z,100370.94
2022-09-16T12:12:53.391Z,100372.06
2022-09-16T12:15:27.618Z,100380.88
2022-09-16T12:18:09.086Z,100375.94
2022-09-16T12:20:41.520Z,100377.50
2022-09-16T12:23:30.717Z,100386.56
2022-09-16T12:26:12.764Z,100378.06
2022-09-16T12:28:59.370Z,100373.66
2022-09-16T12:31:44.833Z,100366.97
2022-09-16T12:34:15.529Z,100376.25
2022-09-16T12:36:47.733Z,100371.38
2022-09-16T12:39:14.115Z,100373.22
2022-09-16T12:42:17.126Z,100368.09
2022-09-16T12:45:01.947Z,100374.91
2022-09-16T12:47:40.856Z,100376.56
2022-09-16T12:50:07.216Z,100367.59
2022-09-16T12:52:45.999Z,100372.41
2022-09-16T12:55:49.806Z,100364.63
2022-09-16T12:58:58.243Z,100366.56
2022-09-16T13:01:30.330Z,100362.28
2022-09-16T13:04:03.914Z,100353.66
2022-09-16T13:06:35.577Z,100346.38
2022-09-16T13:09:18.376Z,100345.13
2022-09-16T13:12:34.224Z,100357.50
2022-09-16T13:14:49.403Z,100353.03
2022-09-16T13:17:34.360Z,100353.19
2022-09-16T13:20:22.764Z,100364.63
2022-09-16T13:23:20.520Z,100365.94
2022-09-16T13:26:01.982Z,100366.69
2022-09-16T13:28:35.243Z,100374.97
2022-09-16T13:31:14.231Z,100378.50
2022-09-16T13:33:46.228Z,100375.22
2022-09-16T13:36:22.330Z,100377.34
2022-09-16T13:38:52.107Z,100386.56
2022-09-16T13:41:37.774Z,100379.47
2022-09-16T13:44:30.374Z,100378.47
2022-09-16T13:47:08.948Z,100380.06
2022-09-16T13:49:41.575Z,100369.88
2022-09-16T13:52:13.410Z,100375.03
2022-09-16T13:55:09.574Z,100360.00
2022-09-16T13:58:16.499Z,100368.97
2022-09-16T14:00:58.700Z,100362.75
2022-09-16T14:03:35.207Z,100360.84
2022-09-16T14:06:39.611Z,100363.66
2022-09-16T14:09:21.312Z,100358.88
2022-09-16T14:11:59.978Z,100356.22
2022-09-16T14:14:47.441Z,100354.44
2022-09-16T14:17:19.371Z,100353.63
2022-09-16T14:19:48.314Z,100356.50
2022-09-16T14:22:18.756Z,100359.03
2022-09-16T14:24:46.624Z,100366.19
2022-09-16T14:27:34.190Z,100373.31
2022-09-16T14:30:03.710Z,100362.34
2022-09-16T14:32:35.076Z,100353.66
2022-09-16T14:35:09.859Z,100359.00
2022-09-16T14:37:38.907Z,100357.63
2022-09-16T14:40:13.410Z,100368.44
2022-09-16T14:42:52.656Z,100354.44
2022-09-16T14:45:20.693Z,100364.94
2022-09-16T14:47:52.793Z,100348.09
2022-09-16T14:50:25.072Z,100363.47
2022-09-16T14:53:03.228Z,100360.56
2022-09-16T14:55:33.526Z,100349.13
2022-09-16T14:58:00.422Z,100364.00
2022-09-16T15:00:44.143Z,100362.47
2022-09-16T15:03:19.983Z,100357.53
2022-09-16T15:05:47.514Z,100348.66
2022-09-16T15:08:18.603Z,100348.56
2022-09-16T15:10:54.941Z,100349.28
2022-09-16T15:13:25.760Z,100346.59
2022-09-16T15:16:08.637Z,100343.84
2022-09-16T15:18:38.152Z,100342.94
2022-09-16T15:21:12.849Z,100347.22
2022-09-16T15:23:41.635Z,100354.69
2022-09-16T15:26:19.816Z,100343.31
2022-09-16T15:28:51.302Z,100351.19
2022-09-16T15:31:44.984Z,100350.53
2022-09-16T15:34:20.264Z,100334.97
2022-09-16T15:36:49.480Z,100333.38
2022-09-16T15:39:32.533Z,100337.84
2022-09-16T15:42:26.240Z,100345.78
2022-09-16T15:45:01.928Z,100344.38
2022-09-16T15:47:34.790Z,100334.69
2022-09-16T15:50:12.290Z,100335.63
2022-09-16T15:53:00.879Z,100346.91
2022-09-16T15:56:05.183Z,100339.00
2022-09-16T15:58:45.051Z,100332.59
2022-09-16T16:01:13.781Z,100326.25
2022-09-16T16:03:59.831Z,100339.28
2022-09-16T16:06:48.815Z,100322.81
2022-09-16T16:09:27.541Z,100328.72
2022-09-16T16:11:55.929Z,100320.03
2022-09-16T16:14:24.477Z,100335.81
2022-09-16T16:17:11.639Z,100329.00
2022-09-16T16:19:42.058Z,100335.13
2022-09-16T16:22:09.342Z,100339.47
2022-09-16T16:24:36.160Z,100337.63
2022-09-16T16:27:02.701Z,100347.06
2022-09-16T16:29:29.114Z,100341.75
2022-09-16T16:32:04.883Z,100348.72
2022-09-16T16:34:33.199Z,100357.47
2022-09-16T16:36:59.738Z,100358.78
2022-09-16T16:39:26.373Z,100365.09
2022-09-16T16:41:54.030Z,100365.19
2022-09-16T16:44:22.764Z,100360.28
2022-09-16T16:46:55.324Z,100360.34
2022-09-16T16:49:22.966Z,100378.81
2022-09-16T16:51:55.024Z,100370.28
2022-09-16T16:54:22.177Z,100369.56
2022-09-16T16:56:48.834Z,100366.06
2022-09-16T16:59:16.359Z,100375.97
2022-09-16T17:01:48.479Z,100367.31
2022-09-16T17:04:15.355Z,100383.22
2022-09-16T17:06:42.341Z,100374.41
2022-09-16T17:09:14.983Z,100358.78
2022-09-16T17:11:59.808Z,100362.47
2022-09-16T17:14:28.377Z,100365.25
2022-09-16T17:16:55.217Z,100368.91
2022-09-16T17:19:24.006Z,100369.88
2022-09-16T17:21:51.061Z,100379.56
2022-09-16T17:24:17.985Z,100384.03
2022-09-16T17:26:45.331Z,100389.28
2022-09-16T17:29:15.970Z,100391.97
2022-09-16T17:31:43.255Z,100388.63
2022-09-16T17:34:13.262Z,100386.97
2022-09-16T17:36:43.769Z,100391.31
2022-09-16T17:39:21.179Z,100409.88
2022-09-16T17:41:49.406Z,100398.59
2022-09-16T17:44:17.301Z,100400.41
2022-09-16T17:46:44.865Z,100401.38
2022-09-16T17:49:22.643Z,100395.34
2022-09-16T17:51:50.651Z,100398.84
2022-09-16T17:54:17.649Z,100406.94
2022-09-16T17:56:44.413Z,100414.94
2022-09-16T17:59:11.932Z,100409.69
2022-09-16T18:01:38.748Z,100406.22
2022-09-16T18:04:05.404Z,100420.38
2022-09-16T18:06:35.785Z,100421.31
2022-09-16T18:09:05.104Z,100419.69
2022-09-16T18:11:31.558Z,100424.16
2022-09-16T18:14:01.676Z,100417.06
2022-09-16T18:16:30.188Z,100415.34
2022-09-16T18:18:59.994Z,100418.06
2022-09-16T18:21:27.529Z,100414.56
2022-09-16T18:23:56.350Z,100417.19
2022-09-16T18:26:23.709Z,100423.31
2022-09-16T18:29:09.010Z,100426.84
2022-09-16T18:31:35.946Z,100427.88
2022-09-16T18:34:02.383Z,100421.78
2022-09-16T18:36:30.422Z,100422.69
2022-09-16T18:38:58.367Z,100433.19
2022-09-16T18:41:31.291Z,100424.50
2022-09-16T18:44:00.424Z,100433.28
2022-09-16T18:46:32.307Z,100430.63
2022-09-16T18:48:59.844Z,100421.88
2022-09-16T18:51:29.460Z,100428.00
2022-09-16T18:54:00.578Z,100433.28
2022-09-16T18:56:28.551Z,100424.56
2022-09-16T18:59:20.525Z,100434.97
2022-09-16T19:01:48.651Z,100444.59
2022-09-16T19:04:17.480Z,100434.97
2022-09-16T19:06:46.554Z,100429.88
2022-09-16T19:09:15.166Z,100439.56
2022-09-16T19:11:42.665Z,100439.69
2022-09-16T19:14:12.117Z,100437.13
2022-09-16T19:16:40.469Z,100434.56
2022-09-16T19:19:09.015Z,100438.09
2022-09-16T19:21:36.314Z,100447.84
2022-09-16T19:24:06.004Z,100451.41
2022-09-16T19:26:35.819Z,100441.00
2022-09-16T19:29:03.209Z,100433.28
2022-09-16T19:31:31.382Z,100440.34
2022-09-16T19:33:59.260Z,100438.75
2022-09-16T19:36:28.748Z,100440.63
2022-09-16T19:38:56.448Z,100452.88
2022-09-16T19:41:26.332Z,100450.38
2022-09-16T19:43:54.455Z,100452.19
2022-09-16T19:46:20.926Z,100448.88
2022-09-16T19:48:48.764Z,100460.34
2022-09-16T19:51:18.340Z,100451.72
2022-09-16T19:53:46.619Z,100454.34
2022-09-16T19:56:25.409Z,100450.97
2022-09-16T19:58:53.566Z,100452.00
2022-09-16T20:01:23.231Z,100453.78
2022-09-16T20:03:50.731Z,100447.84
2022-09-16T20:06:25.391Z,100451.41
2022-09-16T20:08:55.321Z,100455.75
2022-09-16T20:11:24.271Z,100455.81
2022-09-16T20:13:53.157Z,100457.66
2022-09-16T20:16:20.956Z,100465.78
2022-09-16T20:18:47.767Z,100470.22
2022-09-16T20:21:18.628Z,100465.06
2022-09-16T20:23:45.933Z,100470.25
2022-09-16T20:26:16.537Z,100475.44
2022-09-16T20:28:43.507Z,100479.03
2022-09-16T20:31:11.811Z,100473.84
2022-09-16T20:33:38.299Z,100486.13
2022-09-16T20:36:10.805Z,100482.66
2022-09-16T20:38:38.931Z,100483.66
2022-09-16T20:41:10.896Z,100488.03
2022-09-16T20:43:37.741Z,100492.41
2022-09-16T20:46:12.843Z,100494.28
2022-09-16T20:48:40.225Z,100502.22
2022-09-16T20:51:11.910Z,100498.97
2022-09-16T20:53:39.545Z,100502.53
2022-09-16T20:56:14.579Z,100505.97
2022-09-16T20:58:42.336Z,100499.06
2022-09-16T21:01:11.648Z,100498.13
2022-09-16T21:03:39.511Z,100506.03
2022-09-16T21:06:09.409Z,100508.59
2022-09-16T21:08:39.126Z,100512.13
2022-09-16T21:11:11.663Z,100510.34
2022-09-16T21:13:41.201Z,100505.94
2022-09-16T21:16:11.107Z,100514.84
2022-09-16T21:18:38.144Z,100513.22
2022-09-16T21:21:05.942Z,100501.72
2022-09-16T21:23:33.929Z,100513.94
2022-09-16T21:26:10.529Z,100502.72
2022-09-16T21:28:36.929Z,100508.88
2022-09-16T21:31:06.229Z,100505.34
2022-09-16T21:33:37.757Z,100508.88
2022-09-16T21:36:05.924Z,100521.06
2022-09-16T21:38:33.221Z,100509.00
2022-09-16T21:41:09.195Z,100516.22
2022-09-16T21:43:39.910Z,100509.94
2022-09-16T21:46:11.530Z,100508.09
2022-09-16T21:48:38.510Z,100511.59
2022-09-16T21:51:08.069Z,100511.66
2022-09-16T21:53:37.325Z,100516.97
2022-09-16T21:56:08.593Z,100516.16
2022-09-16T21:58:35.416Z,100510.13
2022-09-16T22:01:19.079Z,100513.63
2022-09-16T22:03:48.641Z,100515.25
2022-09-16T22:06:19.623Z,100514.38
2022-09-16T22:08:48.953Z,100515.25
2022-09-16T22:11:18.291Z,100515.31
2022-09-16T22:13:45.198Z,100525.00
2022-09-16T22:16:17.923Z,100523.34
2022-09-16T22:18:45.024Z,100524.19
2022-09-16T22:21:14.215Z,100518.88
2022-09-16T22:23:41.247Z,100519.84
2022-09-16T22:26:10.891Z,100522.44
2022-09-16T22:28:38.041Z,100525.09
2022-09-16T22:31:06.576Z,100524.19
2022-09-16T22:33:34.476Z,100523.28
2022-09-16T22:36:06.647Z,100525.06
2022-09-16T22:38:33.671Z,100523.19
2022-09-16T22:41:05.436Z,100530.22
2022-09-16T22:43:39.906Z,100532.03
2022-09-16T22:46:08.692Z,100532.00
2022-09-16T22:48:35.804Z,100529.34
2022-09-16T22:51:02.880Z,100533.75
2022-09-16T22:53:30.786Z,100526.84
2022-09-16T22:56:09.815Z,100532.16
2022-09-16T22:58:36.371Z,100528.69
2022-09-16T23:01:08.795Z,100532.16
2022-09-16T23:03:36.059Z,100521.81
2022-09-16T23:06:05.964Z,100529.72
2022-09-16T23:08:35.074Z,100529.88
2022-09-16T23:11:06.832Z,100523.63
2022-09-16T23:13:50.256Z,100524.47
2022-09-16T23:16:19.516Z,100533.22
2022-09-16T23:18:47.079Z,100532.44
2022-09-16T23:21:16.641Z,100534.22
2022-09-16T23:23:45.716Z,100536.91
2022-09-16T23:26:16.195Z,100540.34
2022-09-16T23:28:43.041Z,100525.34
2022-09-16T23:31:15.485Z,100530.63
2022-09-16T23:33:43.095Z,100531.47
2022-09-16T23:36:11.955Z,100527.09
2022-09-16T23:38:39.701Z,100528.81
2022-09-16T23:41:15.376Z,100533.97
2022-09-16T23:43:43.374Z,100528.72
2022-09-16T23:46:11.115Z,100526.13
2022-09-16T23:48:37.824Z,100526.97
2022-09-16T23:51:05.447Z,100520.06
2022-09-16T23:53:32.119Z,100520.78
2022-09-16T23:55:58.545Z,100520.84
2022-09-16T23:58:25.061Z,100518.38
